Time;durP1;ratioP1;P1;durP2;ratioP2;P2;SDS_P1;SDS_P2;PMS_P1;PMS_P2;Temp;Humidity;BMP_temperature;BMP_pressure;BME280_temperature;BME280_humidity;BME280_pressure;Samples;Min_cycle;Max_cycle;Signal;HPM_P1;HPM_P2
2022/11/05 00:11:04;;;;;;;13.77;8.13;;;10.40;99.90;;;;;;5077066;28;20290;-72
2022/11/05 00:19:08;;;;;;;10.60;7.67;;;10.40;99.90;;;;;;5071726;28;20218;-72
2022/11/05 00:27:05;;;;;;;12.90;7.40;;;10.40;99.90;;;;;;5074020;28;20218;-72
2022/11/05 00:29:30;;;;;;;9.67;6.70;;;10.30;99.90;;;;;;5080756;28;20210;-72
2022/11/05 00:31:56;;;;;;;10.77;6.67;;;10.40;99.90;;;;;;5079496;28;20233;-72
2022/11/05 00:34:21;;;;;;;9.73;6.27;;;10.40;99.90;;;;;;5075701;28;20230;-72
2022/11/05 00:36:47;;;;;;;12.27;5.80;;;10.30;99.90;;;;;;5075964;28;20219;-73
2022/11/05 00:39:12;;;;;;;11.13;6.13;;;10.30;99.90;;;;;;5048120;28;20213;-71
2022/11/05 00:41:38;;;;;;;8.77;6.00;;;10.30;99.90;;;;;;5075310;28;20266;-72
2022/11/05 00:46:47;;;;;;;10.43;5.93;;;10.30;99.90;;;;;;5075004;28;20185;-72
2022/11/05 00:49:28;;;;;;;12.50;6.33;;;10.20;99.90;;;;;;5060326;28;20555;-72
2022/11/05 00:52:54;;;;;;;10.03;5.57;;;10.20;99.90;;;;;;5073936;28;20211;-72
2022/11/05 00:54:42;;;;;;;9.40;6.10;;;10.20;99.90;;;;;;5077740;28;20225;-72
2022/11/05 00:57:08;;;;;;;8.80;5.80;;;10.30;99.90;;;;;;5060757;28;20215;-73
2022/11/05 00:59:33;;;;;;;14.83;7.07;;;10.30;99.90;;;;;;5056111;28;20211;-72
2022/11/05 01:01:59;;;;;;;10.83;6.07;;;10.30;99.90;;;;;;5073256;28;20234;-72
2022/11/05 01:04:25;;;;;;;9.33;5.87;;;10.20;99.90;;;;;;5080171;28;20202;-72
2022/11/05 01:06:50;;;;;;;10.17;6.50;;;10.20;99.90;;;;;;5057664;28;20215;-72
2022/11/05 01:09:16;;;;;;;11.70;6.63;;;10.30;99.90;;;;;;5073476;28;20207;-71
2022/11/05 01:11:41;;;;;;;8.53;5.70;;;10.20;99.90;;;;;;5078983;28;20276;-72
2022/11/05 01:14:09;;;;;;;11.83;6.33;;;10.20;99.90;;;;;;5078532;28;20222;-71
2022/11/05 01:16:36;;;;;;;11.23;7.37;;;10.20;99.90;;;;;;5073780;28;20185;-71
2022/11/05 01:19:04;;;;;;;10.00;6.70;;;10.20;99.90;;;;;;5073768;28;20218;-71
2022/11/05 01:21:30;;;;;;;12.60;6.17;;;10.20;99.90;;;;;;5078781;28;20263;-71
2022/11/05 01:23:55;;;;;;;11.40;6.73;;;10.20;99.90;;;;;;5075330;28;20231;-72
2022/11/05 01:26:21;;;;;;;11.63;6.73;;;10.20;99.90;;;;;;5055303;28;20233;-72
2022/11/05 01:28:51;;;;;;;10.07;7.53;;;10.10;99.90;;;;;;5078533;28;20683;-72
2022/11/05 01:31:16;;;;;;;10.33;6.37;;;10.20;99.90;;;;;;5045351;28;20182;-71
2022/11/05 01:33:42;;;;;;;11.40;6.70;;;10.20;99.90;;;;;;5053581;28;20587;-71
2022/11/05 01:36:08;;;;;;;10.07;6.50;;;10.10;99.90;;;;;;5073822;28;20218;-71
2022/11/05 01:38:33;;;;;;;12.43;6.53;;;10.10;99.90;;;;;;5078263;28;20225;-72
2022/11/05 01:40:59;;;;;;;9.67;6.77;;;10.10;99.90;;;;;;5075657;28;20214;-71
2022/11/05 01:43:24;;;;;;;10.93;7.00;;;10.10;99.90;;;;;;5072971;28;20802;-71
2022/11/05 01:45:53;;;;;;;11.40;7.27;;;10.10;99.90;;;;;;5056518;28;20203;-71
2022/11/05 01:48:30;;;;;;;11.43;6.90;;;10.10;99.90;;;;;;5044618;28;20276;-72
2022/11/05 01:51:00;;;;;;;10.10;7.00;;;10.10;99.90;;;;;;5072853;28;20234;-71
2022/11/05 01:53:47;;;;;;;12.10;6.80;;;10.00;99.90;;;;;;5052951;28;20225;-71
2022/11/05 01:56:16;;;;;;;17.10;8.23;;;10.00;99.90;;;;;;5078597;28;20214;-72
2022/11/05 01:58:51;;;;;;;10.13;6.73;;;10.00;99.90;;;;;;5073882;28;20294;-72
2022/11/05 02:01:18;;;;;;;13.53;7.77;;;10.00;99.90;;;;;;5070775;28;20170;-70
2022/11/05 02:03:46;;;;;;;12.47;7.23;;;10.00;99.90;;;;;;5077242;28;20206;-71
2022/11/05 02:06:14;;;;;;;10.33;6.67;;;10.00;99.90;;;;;;5077021;28;20218;-71
2022/11/05 02:08:58;;;;;;;13.37;7.47;;;10.00;99.90;;;;;;5072612;28;20230;-73
2022/11/05 02:11:24;;;;;;;11.33;7.67;;;9.90;99.90;;;;;;5074341;28;20210;-72
2022/11/05 02:13:50;;;;;;;11.73;7.53;;;9.90;99.90;;;;;;5075910;28;20205;-73
2022/11/05 02:16:40;;;;;;;14.03;8.00;;;9.90;99.90;;;;;;5057578;28;20203;-72
2022/11/05 02:19:35;;;;;;;11.17;8.30;;;9.90;99.90;;;;;;5053717;28;20593;-73
2022/11/05 02:22:13;;;;;;;15.63;8.87;;;9.90;99.90;;;;;;5075950;28;20226;-72
2022/11/05 02:25:14;;;;;;;11.77;7.93;;;9.80;99.90;;;;;;5070145;28;20222;-72
2022/11/05 02:27:45;;;;;;;14.50;8.73;;;9.80;99.90;;;;;;5071469;28;20564;-72
2022/11/05 02:30:46;;;;;;;12.03;9.30;;;9.80;99.90;;;;;;5078444;28;20218;-72
2022/11/05 02:33:37;;;;;;;11.87;8.47;;;9.80;99.90;;;;;;5077907;28;20237;-72
2022/11/05 02:36:41;;;;;;;15.33;8.13;;;9.80;99.90;;;;;;5070433;28;20233;-73
2022/11/05 02:39:15;;;;;;;12.30;8.43;;;9.70;99.90;;;;;;5075106;28;20210;-72
2022/11/05 02:42:11;;;;;;;15.60;8.77;;;9.70;99.90;;;;;;5070445;28;20213;-72
2022/11/05 02:45:00;;;;;;;11.97;8.20;;;9.60;99.90;;;;;;5068519;28;20217;-73
2022/11/05 02:47:45;;;;;;;15.43;9.23;;;9.60;99.90;;;;;;5073365;28;20222;-73
2022/11/05 02:50:36;;;;;;;12.27;8.47;;;9.60;99.90;;;;;;5073696;28;20684;-72
2022/11/05 02:53:10;;;;;;;19.20;9.20;;;9.60;99.90;;;;;;5070036;28;20214;-72
2022/11/05 02:55:43;;;;;;;13.03;8.20;;;9.60;99.90;;;;;;5077290;28;20174;-73
2022/11/05 02:58:10;;;;;;;12.60;7.97;;;9.50;99.90;;;;;;5075066;28;20268;-73
2022/11/05 03:00:51;;;;;;;15.47;8.70;;;9.50;99.90;;;;;;5071325;28;20211;-72
2022/11/05 03:03:25;;;;;;;14.27;8.20;;;9.50;99.90;;;;;;5076490;28;20202;-72
2022/11/05 03:06:04;;;;;;;13.50;8.23;;;9.50;99.90;;;;;;5074678;28;20233;-73
2022/11/05 03:08:57;;;;;;;13.87;7.87;;;9.40;99.90;;;;;;5068203;28;20207;-73
2022/11/05 03:11:28;;;;;;;15.70;8.30;;;9.40;99.90;;;;;;5073184;28;20645;-72
2022/11/05 03:14:20;;;;;;;12.87;8.13;;;9.40;99.90;;;;;;5075277;28;20207;-73
2022/11/05 03:17:03;;;;;;;14.33;7.87;;;9.40;99.90;;;;;;5070615;28;20229;-73
2022/11/05 03:19:53;;;;;;;12.70;7.97;;;9.40;99.90;;;;;;5073686;28;20170;-72
2022/11/05 03:22:29;;;;;;;12.40;7.77;;;9.40;99.90;;;;;;5072398;28;20206;-72
2022/11/05 03:25:01;;;;;;;12.33;7.30;;;9.40;99.90;;;;;;5072982;28;20252;-72
2022/11/05 03:27:33;;;;;;;12.33;7.30;;;9.40;99.90;;;;;;5070754;28;20210;-73
2022/11/05 03:30:02;;;;;;;14.23;7.33;;;9.40;99.90;;;;;;5076292;28;20249;-72
2022/11/05 03:32:32;;;;;;;13.30;7.07;;;9.40;99.90;;;;;;5076074;28;20290;-72
2022/11/05 03:35:20;;;;;;;13.27;7.47;;;9.40;99.90;;;;;;5068794;28;20215;-73
2022/11/05 03:37:48;;;;;;;16.37;7.50;;;9.40;99.90;;;;;;5075735;28;20644;-72
2022/11/05 03:40:17;;;;;;;13.23;6.90;;;9.50;99.90;;;;;;5073255;28;20202;-72
2022/11/05 03:42:46;;;;;;;12.53;7.27;;;9.40;99.90;;;;;;5044754;28;20215;-73
2022/11/05 03:45:20;;;;;;;10.70;6.83;;;9.40;99.90;;;;;;5064795;28;20215;-73
2022/11/05 03:47:49;;;;;;;11.63;7.00;;;9.40;99.90;;;;;;5061861;28;20337;-72
2022/11/05 03:50:17;;;;;;;14.97;7.63;;;9.40;99.90;;;;;;5062713;28;20593;-72
2022/11/05 03:52:51;;;;;;;12.50;6.50;;;9.30;99.90;;;;;;5045537;28;20183;-72
2022/11/05 03:55:18;;;;;;;13.80;6.73;;;9.30;99.90;;;;;;5064870;28;20163;-71
2022/11/05 03:57:50;;;;;;;13.13;7.23;;;9.30;99.90;;;;;;5044124;28;20226;-73
2022/11/05 04:00:16;;;;;;;13.37;7.50;;;9.30;99.90;;;;;;5061862;28;20207;-71
2022/11/05 04:02:41;;;;;;;15.70;7.03;;;9.30;99.90;;;;;;5046632;28;20207;-73
2022/11/05 04:05:07;;;;;;;12.10;6.73;;;9.30;99.90;;;;;;5063746;28;20512;-72
2022/11/05 04:18:29;;;;;;;19.17;6.90;;;9.30;99.90;;;;;;5061301;28;20306;-73
2022/11/05 04:26:23;;;;;;;14.77;6.17;;;9.10;99.90;;;;;;5064468;28;20214;-72
2022/11/05 04:31:34;;;;;;;13.37;6.07;;;9.10;99.90;;;;;;5068577;28;20182;-73
2022/11/05 04:33:59;;;;;;;11.77;6.50;;;9.10;99.90;;;;;;5061811;28;20577;-72
2022/11/05 04:36:25;;;;;;;12.80;5.43;;;9.00;99.90;;;;;;5063570;28;20211;-72
2022/11/05 04:38:50;;;;;;;12.13;5.97;;;9.00;99.90;;;;;;5061396;28;20216;-72
2022/11/05 04:41:16;;;;;;;15.13;6.30;;;9.00;99.90;;;;;;5060198;28;20236;-71
2022/11/05 04:43:43;;;;;;;19.17;6.93;;;9.00;99.90;;;;;;5062276;28;20242;-75
2022/11/05 04:46:09;;;;;;;12.07;5.33;;;9.00;99.90;;;;;;5064592;28;20207;-72
2022/11/05 04:48:35;;;;;;;11.10;5.23;;;8.90;99.90;;;;;;5060503;28;20216;-72
2022/11/05 04:51:01;;;;;;;14.67;5.70;;;9.00;99.90;;;;;;5062817;28;20251;-72
2022/11/05 04:53:27;;;;;;;10.53;5.60;;;9.00;99.90;;;;;;5063460;28;20701;-72
2022/11/05 04:55:52;;;;;;;12.77;5.57;;;9.00;99.90;;;;;;5061168;28;20264;-72
2022/11/05 04:58:18;;;;;;;12.80;5.63;;;9.00;99.90;;;;;;5094043;22;20219;-72
2022/11/05 05:00:43;;;;;;;13.43;5.33;;;9.00;99.90;;;;;;5066829;28;20689;-72
2022/11/05 05:03:09;;;;;;;9.17;5.13;;;8.90;99.90;;;;;;5063525;28;20253;-72
2022/11/05 05:05:35;;;;;;;11.03;5.83;;;9.00;99.90;;;;;;5063687;28;20701;-72
2022/11/05 05:08:05;;;;;;;13.67;5.40;;;9.00;99.90;;;;;;5062145;28;20211;-73
2022/11/05 05:10:31;;;;;;;11.07;5.90;;;9.00;99.90;;;;;;5042184;28;20183;-72
2022/11/05 05:12:57;;;;;;;15.30;6.23;;;9.00;99.90;;;;;;5063578;28;20218;-72
2022/11/05 05:15:23;;;;;;;9.63;5.57;;;9.00;99.90;;;;;;5063884;28;20211;-73
2022/11/05 05:17:52;;;;;;;10.07;5.53;;;9.00;99.90;;;;;;5048716;28;20223;-73
2022/11/05 05:23:02;;;;;;;11.33;5.67;;;8.90;99.90;;;;;;5060231;28;20249;-73
2022/11/05 05:25:28;;;;;;;10.30;5.37;;;8.90;99.90;;;;;;5063585;28;20202;-72
2022/11/05 05:27:56;;;;;;;10.70;5.43;;;8.90;99.90;;;;;;5059159;28;20219;-72
2022/11/05 05:30:22;;;;;;;12.87;5.83;;;8.90;99.90;;;;;;5060197;28;20209;-72
2022/11/05 05:32:47;;;;;;;9.40;5.27;;;8.90;99.90;;;;;;5047000;28;20207;-73
2022/11/05 05:35:13;;;;;;;13.80;5.80;;;8.80;99.90;;;;;;5062536;28;20276;-72
2022/11/05 05:37:39;;;;;;;8.37;5.43;;;8.80;99.90;;;;;;5059507;28;20294;-73
2022/11/05 05:40:05;;;;;;;14.43;6.90;;;8.70;99.90;;;;;;5059628;28;20677;-72
2022/11/05 05:42:31;;;;;;;13.30;6.30;;;8.70;99.90;;;;;;5062125;28;20203;-72
2022/11/05 05:44:56;;;;;;;12.80;6.33;;;8.70;99.90;;;;;;5059445;28;20204;-72
2022/11/05 05:47:22;;;;;;;13.43;6.57;;;8.70;99.90;;;;;;5063245;28;20300;-72
2022/11/05 05:49:47;;;;;;;13.43;6.87;;;8.70;99.90;;;;;;5060882;28;20189;-72
2022/11/05 05:52:13;;;;;;;12.77;5.53;;;8.60;99.90;;;;;;5061483;28;20202;-72
2022/11/05 05:54:38;;;;;;;11.03;5.57;;;8.70;99.90;;;;;;5064943;28;20218;-72
2022/11/05 05:57:04;;;;;;;10.90;5.03;;;8.70;99.90;;;;;;5059190;28;20737;-72
2022/11/05 05:59:29;;;;;;;10.23;5.83;;;8.60;99.90;;;;;;5064777;28;20207;-73
2022/11/05 06:01:55;;;;;;;9.97;5.60;;;8.60;99.90;;;;;;5058463;28;20211;-72
2022/11/05 06:04:21;;;;;;;11.73;5.50;;;8.60;99.90;;;;;;5068420;28;20185;-73
2022/11/05 06:06:47;;;;;;;12.40;5.33;;;8.60;99.90;;;;;;5064293;28;20206;-71
2022/11/05 06:09:13;;;;;;;13.77;4.97;;;8.60;99.90;;;;;;5063100;28;20294;-72
2022/11/05 06:11:39;;;;;;;13.83;5.40;;;8.70;99.90;;;;;;5065942;28;20696;-72
2022/11/05 06:14:04;;;;;;;11.50;5.17;;;8.70;99.90;;;;;;5067777;28;20213;-73
2022/11/05 06:16:34;;;;;;;12.97;5.60;;;8.70;99.90;;;;;;5050412;28;20172;-72
2022/11/05 06:19:01;;;;;;;10.83;4.93;;;8.70;99.90;;;;;;5041588;28;20729;-72
2022/11/05 06:21:27;;;;;;;11.00;4.73;;;8.60;99.90;;;;;;5068457;28;20976;-72
2022/11/05 06:23:52;;;;;;;13.03;5.07;;;8.60;99.90;;;;;;5064063;28;20218;-71
2022/11/05 06:26:18;;;;;;;9.77;5.00;;;8.60;99.90;;;;;;5063706;28;20198;-72
2022/11/05 06:28:44;;;;;;;9.90;5.13;;;8.60;99.90;;;;;;5045791;28;20203;-73
2022/11/05 06:31:12;;;;;;;11.20;4.43;;;8.60;99.90;;;;;;5066135;28;20267;-71
2022/11/05 06:33:38;;;;;;;11.30;4.47;;;8.60;99.90;;;;;;5064169;28;20210;-72
2022/11/05 06:36:05;;;;;;;10.77;4.77;;;8.70;99.90;;;;;;5050430;28;20218;-72
2022/11/05 06:38:33;;;;;;;10.67;5.10;;;8.70;99.90;;;;;;5068100;28;20215;-72
2022/11/05 06:40:59;;;;;;;11.97;4.70;;;8.60;99.90;;;;;;5063723;28;20628;-72
2022/11/05 06:43:25;;;;;;;9.47;4.20;;;8.60;99.90;;;;;;5052273;28;20190;-73
2022/11/05 06:45:51;;;;;;;8.67;4.37;;;8.60;99.90;;;;;;5060610;28;20575;-72
2022/11/05 06:48:16;;;;;;;11.80;4.50;;;8.60;99.90;;;;;;5067047;28;20218;-70
2022/11/05 06:50:45;;;;;;;12.40;4.33;;;8.70;99.90;;;;;;5063496;28;20203;-72
2022/11/05 06:53:11;;;;;;;15.07;4.27;;;8.70;99.90;;;;;;5061325;28;20692;-72
2022/11/05 06:55:37;;;;;;;15.87;4.80;;;8.70;99.90;;;;;;5068427;28;20179;-72
2022/11/05 06:58:03;;;;;;;13.27;4.90;;;8.70;99.90;;;;;;5066430;28;20218;-72
2022/11/05 07:00:28;;;;;;;14.50;4.20;;;8.70;99.90;;;;;;5064019;28;20211;-73
2022/11/05 07:02:55;;;;;;;10.77;4.03;;;8.80;99.90;;;;;;5062734;28;20209;-72
2022/11/05 07:05:22;;;;;;;9.50;4.10;;;8.80;99.90;;;;;;5066623;28;20234;-72
2022/11/05 07:07:47;;;;;;;10.77;4.70;;;8.80;99.90;;;;;;5062684;28;20202;-72
2022/11/05 07:10:17;;;;;;;11.73;4.13;;;8.80;99.90;;;;;;5061790;28;20241;-73
2022/11/05 07:12:43;;;;;;;10.07;5.03;;;8.90;99.90;;;;;;5068514;28;20238;-73
2022/11/05 07:15:10;;;;;;;9.67;4.43;;;9.00;99.90;;;;;;5066367;28;20215;-73
2022/11/05 07:17:36;;;;;;;9.53;4.03;;;8.90;99.90;;;;;;5048725;28;20715;-72
2022/11/05 07:20:02;;;;;;;10.70;4.67;;;9.00;99.90;;;;;;5066452;28;20207;-72
2022/11/05 07:22:28;;;;;;;13.27;4.03;;;9.00;99.90;;;;;;5055923;28;20219;-72
2022/11/05 07:24:53;;;;;;;12.93;5.30;;;9.00;99.90;;;;;;5068682;28;20711;-71
2022/11/05 07:27:19;;;;;;;8.27;4.13;;;9.00;99.90;;;;;;5067730;28;20231;-71
2022/11/05 07:29:45;;;;;;;13.00;5.13;;;9.00;99.90;;;;;;5068199;28;20211;-72
2022/11/05 07:32:10;;;;;;;9.57;5.20;;;9.00;99.90;;;;;;5067431;28;20237;-72
2022/11/05 07:34:36;;;;;;;12.63;5.47;;;8.90;99.90;;;;;;5066553;28;20270;-72
2022/11/05 07:37:01;;;;;;;11.50;5.53;;;9.00;99.90;;;;;;5066902;28;20195;-72
2022/11/05 07:39:27;;;;;;;12.33;5.17;;;9.10;99.90;;;;;;5071904;28;20250;-72
2022/11/05 07:41:56;;;;;;;10.93;5.23;;;9.20;99.90;;;;;;5065942;28;20214;-71
2022/11/05 07:44:22;;;;;;;14.23;5.03;;;9.30;99.90;;;;;;5069503;28;20221;-72
2022/11/05 07:46:49;;;;;;;10.33;4.63;;;9.40;99.90;;;;;;5046975;28;20584;-71
2022/11/05 07:49:14;;;;;;;10.87;4.97;;;9.60;99.90;;;;;;5046452;28;20540;-71
2022/11/05 07:51:40;;;;;;;14.47;4.80;;;9.70;99.90;;;;;;5064507;28;20207;-72
2022/11/05 07:54:05;;;;;;;11.83;5.03;;;9.60;99.90;;;;;;5066808;28;20294;-72
2022/11/05 07:56:31;;;;;;;11.83;4.63;;;9.70;99.90;;;;;;5070598;28;20293;-72
2022/11/05 07:58:56;;;;;;;13.07;5.77;;;9.80;99.90;;;;;;5066873;28;20250;-72
2022/11/05 08:01:22;;;;;;;8.83;4.13;;;9.90;99.90;;;;;;5048277;28;20215;-72
2022/11/05 08:03:47;;;;;;;12.10;4.97;;;9.80;99.90;;;;;;5067598;28;20572;-72
2022/11/05 08:06:13;;;;;;;11.23;5.50;;;9.80;99.90;;;;;;5067765;28;20206;-72
2022/11/05 08:08:38;;;;;;;12.83;4.90;;;9.90;99.90;;;;;;5047438;28;20230;-73
2022/11/05 08:11:06;;;;;;;13.30;4.93;;;10.50;99.90;;;;;;5066212;28;20215;-72
2022/11/05 08:13:32;;;;;;;8.43;4.67;;;11.10;99.90;;;;;;5070778;28;20228;-72
2022/11/05 08:15:59;;;;;;;9.97;4.43;;;11.70;99.90;;;;;;5051995;28;20216;-72
2022/11/05 08:18:30;;;;;;;10.30;4.87;;;12.10;99.90;;;;;;5065243;28;20585;-72
2022/11/05 08:20:58;;;;;;;9.63;4.67;;;12.50;99.90;;;;;;5067605;28;20206;-71
2022/11/05 08:23:24;;;;;;;13.53;4.43;;;12.40;99.90;;;;;;5068818;28;20211;-72
2022/11/05 08:25:50;;;;;;;12.60;4.47;;;12.30;99.90;;;;;;5063545;28;20551;-73
2022/11/05 08:28:15;;;;;;;13.60;4.43;;;12.40;99.90;;;;;;5065991;28;20199;-72
2022/11/05 08:30:41;;;;;;;9.63;3.87;;;12.10;99.90;;;;;;5069731;28;20221;-72
2022/11/05 08:33:11;;;;;;;12.13;3.87;;;11.90;99.90;;;;;;5044014;28;20208;-72
2022/11/05 08:35:38;;;;;;;12.07;4.07;;;11.60;99.90;;;;;;5063790;28;20215;-72
2022/11/05 08:38:05;;;;;;;13.57;4.23;;;11.70;99.90;;;;;;5068734;28;20999;-72
2022/11/05 08:40:33;;;;;;;11.23;4.37;;;11.90;99.90;;;;;;5069083;28;20202;-72
2022/11/05 08:43:01;;;;;;;14.83;4.40;;;12.30;99.90;;;;;;5065515;28;20207;-72
2022/11/05 08:45:27;;;;;;;11.37;4.13;;;12.70;99.90;;;;;;5064464;28;20207;-73
2022/11/05 08:48:00;;;;;;;9.10;3.93;;;13.10;99.90;;;;;;5068071;28;20221;-71
2022/11/05 08:50:26;;;;;;;10.77;4.00;;;13.10;99.90;;;;;;5066664;28;20207;-72
2022/11/05 08:52:52;;;;;;;10.97;4.50;;;13.30;99.90;;;;;;5060938;28;20215;-72
2022/11/05 08:55:17;;;;;;;9.73;4.10;;;13.20;99.90;;;;;;5067608;28;20175;-71
2022/11/05 08:57:45;;;;;;;10.40;4.13;;;13.20;99.90;;;;;;5068982;28;20225;-72
2022/11/05 09:00:11;;;;;;;10.13;3.93;;;13.30;99.90;;;;;;5064348;28;20589;-73
2022/11/05 09:02:37;;;;;;;10.87;4.40;;;13.10;99.90;;;;;;5067967;28;20210;-73
2022/11/05 09:05:02;;;;;;;13.60;4.20;;;13.00;99.90;;;;;;5066721;28;20562;-73
2022/11/05 09:07:28;;;;;;;11.00;3.57;;;13.20;99.90;;;;;;5066479;28;20198;-73
2022/11/05 09:09:53;;;;;;;7.70;3.67;;;13.30;99.90;;;;;;5061192;28;20230;-71
2022/11/05 09:12:19;;;;;;;8.63;3.63;;;13.30;99.90;;;;;;5066988;28;20203;-72
2022/11/05 09:14:45;;;;;;;16.02;3.67;;;13.50;99.90;;;;;;5067371;28;20298;-73
2022/11/05 09:17:19;;;;;;;11.83;3.93;;;13.70;99.90;;;;;;5064685;28;20246;-73
2022/11/05 09:19:45;;;;;;;8.17;3.90;;;13.60;99.90;;;;;;5063671;28;20171;-72
2022/11/05 09:22:11;;;;;;;9.02;3.67;;;13.70;99.90;;;;;;5052908;28;20232;-73
2022/11/05 09:24:41;;;;;;;7.32;3.58;;;13.70;99.90;;;;;;5048265;28;20708;-73
2022/11/05 09:27:14;;;;;;;11.23;3.90;;;13.50;99.90;;;;;;5044661;28;20215;-72
2022/11/05 09:29:41;;;;;;;10.80;3.70;;;13.30;99.90;;;;;;5048260;28;20234;-73
2022/11/05 09:32:07;;;;;;;8.07;3.50;;;13.10;99.90;;;;;;5066120;28;20215;-73
2022/11/05 09:34:34;;;;;;;7.67;3.23;;;13.20;99.90;;;;;;5064647;28;20202;-71
2022/11/05 09:36:59;;;;;;;10.07;3.70;;;13.20;99.90;;;;;;5048001;28;20652;-72
2022/11/05 09:39:25;;;;;;;9.57;3.63;;;13.40;99.90;;;;;;5069948;28;20205;-72
2022/11/05 09:41:55;;;;;;;9.30;3.57;;;13.40;99.90;;;;;;5046777;28;20207;-73
2022/11/05 09:44:25;;;;;;;12.33;4.03;;;13.30;99.90;;;;;;5064159;28;20206;-73
2022/11/05 09:46:57;;;;;;;11.20;4.30;;;13.50;99.90;;;;;;5057904;28;20175;-71
2022/11/05 09:49:34;;;;;;;7.65;3.13;;;13.70;99.90;;;;;;5065249;28;20238;-73
2022/11/05 09:52:00;;;;;;;11.97;4.50;;;13.90;99.90;;;;;;5062275;28;20202;-73
2022/11/05 09:54:30;;;;;;;10.13;3.50;;;14.00;99.90;;;;;;5049561;28;20208;-73
2022/11/05 09:56:56;;;;;;;8.07;3.10;;;13.80;99.90;;;;;;5067328;28;20207;-71
2022/11/05 09:59:41;;;;;;;7.40;3.45;;;13.70;99.90;;;;;;5065351;28;20207;-73
2022/11/05 10:02:29;;;;;;;10.07;3.77;;;13.70;99.90;;;;;;5061220;28;20213;-73
2022/11/05 10:05:02;;;;;;;14.13;3.57;;;13.80;99.90;;;;;;5048173;28;20550;-73
2022/11/05 10:07:34;;;;;;;9.25;2.90;;;13.80;99.90;;;;;;5066000;28;20333;-73
2022/11/05 10:10:03;;;;;;;9.23;2.90;;;13.80;99.90;;;;;;5042864;28;20234;-73
2022/11/05 10:12:52;;;;;;;6.35;2.78;;;13.50;99.90;;;;;;5066094;28;20222;-73
2022/11/05 10:15:33;;;;;;;7.33;2.87;;;13.60;99.90;;;;;;5066713;28;20264;-72
2022/11/05 10:18:09;;;;;;;12.75;3.65;;;13.30;99.90;;;;;;5061025;28;20272;-73
2022/11/05 10:20:37;;;;;;;7.70;3.08;;;13.50;99.90;;;;;;5065733;28;20207;-73
2022/11/05 10:23:17;;;;;;;9.68;3.72;;;13.30;99.90;;;;;;5064452;28;20280;-73
2022/11/05 10:25:49;;;;;;;11.55;3.28;;;13.50;99.90;;;;;;5063565;28;20277;-72
2022/11/05 10:28:23;;;;;;;12.93;3.85;;;13.40;99.90;;;;;;5064381;28;20191;-73
2022/11/05 10:31:00;;;;;;;8.00;2.70;;;13.60;99.90;;;;;;5064294;28;20221;-73
2022/11/05 10:33:42;;;;;;;10.00;3.28;;;13.80;99.90;;;;;;5065955;28;20203;-73
2022/11/05 10:36:33;;;;;;;7.25;2.28;;;14.00;99.90;;;;;;5060337;28;20215;-73
2022/11/05 10:39:13;;;;;;;7.90;2.65;;;14.20;99.90;;;;;;5062796;28;20226;-73
2022/11/05 10:41:51;;;;;;;7.18;2.70;;;14.30;99.90;;;;;;5058711;28;20211;-73
2022/11/05 10:44:39;;;;;;;7.47;2.63;;;14.00;99.90;;;;;;5063296;28;20286;-71
2022/11/05 10:47:33;;;;;;;8.25;2.53;;;14.00;99.90;;;;;;5048697;28;20218;-73
2022/11/05 10:50:09;;;;;;;8.80;2.60;;;13.80;99.90;;;;;;5063755;28;20256;-71
2022/11/05 10:53:09;;;;;;;7.78;2.67;;;13.80;99.90;;;;;;5062455;28;20216;-73
2022/11/05 10:55:43;;;;;;;7.10;2.42;;;13.90;99.90;;;;;;5067308;28;20697;-73
2022/11/05 10:58:10;;;;;;;6.75;2.03;;;13.80;99.90;;;;;;5066502;28;20238;-72
2022/11/05 11:00:36;;;;;;;7.60;2.63;;;13.80;99.90;;;;;;5087431;22;20236;-72
2022/11/05 11:03:04;;;;;;;6.57;2.70;;;14.00;99.90;;;;;;5102125;28;20205;-72
2022/11/05 11:05:37;;;;;;;8.73;2.20;;;14.00;99.90;;;;;;5098364;28;20222;-72
2022/11/05 11:08:23;;;;;;;8.45;2.92;;;14.30;99.90;;;;;;5098081;28;20258;-72
2022/11/05 11:10:50;;;;;;;7.68;2.47;;;14.10;99.90;;;;;;5098292;28;20205;-72
2022/11/05 11:13:23;;;;;;;7.97;2.45;;;14.00;99.90;;;;;;5088295;28;20228;-71
2022/11/05 11:15:50;;;;;;;6.88;1.98;;;14.10;99.90;;;;;;5095910;28;20202;-72
2022/11/05 11:18:38;;;;;;;8.43;2.53;;;13.90;99.90;;;;;;5098092;28;20582;-72
2022/11/05 11:21:11;;;;;;;8.05;2.53;;;14.10;99.90;;;;;;5086893;28;20684;-72
2022/11/05 11:23:39;;;;;;;9.70;3.22;;;14.10;99.90;;;;;;5079118;28;20210;-73
2022/11/05 11:26:06;;;;;;;6.47;2.50;;;14.20;99.90;;;;;;5077021;28;20230;-72
2022/11/05 11:28:57;;;;;;;7.32;2.38;;;14.40;99.90;;;;;;5094825;28;20187;-71
2022/11/05 11:31:26;;;;;;;7.03;2.75;;;14.30;99.90;;;;;;5088894;28;20194;-72
2022/11/05 11:34:30;;;;;;;6.93;2.53;;;14.40;99.90;;;;;;5095739;28;20563;-72
2022/11/05 11:37:15;;;;;;;8.45;2.42;;;14.20;99.90;;;;;;5089468;28;20376;-72
2022/11/05 11:39:46;;;;;;;6.90;2.30;;;14.20;99.90;;;;;;5077490;28;20288;-72
2022/11/05 11:42:33;;;;;;;11.93;2.60;;;14.00;99.90;;;;;;5094132;28;20318;-72
2022/11/05 11:45:04;;;;;;;6.55;2.05;;;14.00;99.90;;;;;;5093049;28;20206;-72
2022/11/05 11:47:31;;;;;;;9.82;2.08;;;14.00;99.90;;;;;;5092321;28;20218;-72
2022/11/05 11:49:59;;;;;;;6.03;1.98;;;14.10;99.90;;;;;;5093201;28;20587;-72
2022/11/05 11:52:30;;;;;;;10.90;2.25;;;14.10;99.90;;;;;;5081450;28;20530;-72
2022/11/05 11:55:11;;;;;;;8.18;2.42;;;13.90;99.90;;;;;;5075968;28;20248;-72
2022/11/05 11:57:52;;;;;;;9.52;3.50;;;13.80;99.90;;;;;;5096089;28;20224;-72
2022/11/05 12:00:22;;;;;;;5.40;2.03;;;13.60;99.90;;;;;;5077912;28;20293;-71
2022/11/05 12:03:09;;;;;;;4.10;1.73;;;13.70;99.90;;;;;;5096452;28;20213;-72
2022/11/05 12:05:57;;;;;;;5.15;2.08;;;13.60;99.90;;;;;;5095564;28;20730;-72
2022/11/05 12:08:39;;;;;;;8.27;2.07;;;13.40;99.90;;;;;;5085142;28;20687;-72
2022/11/05 12:11:10;;;;;;;5.43;1.80;;;13.70;99.90;;;;;;5096647;28;20607;-72
2022/11/05 12:13:55;;;;;;;5.88;2.35;;;13.70;99.90;;;;;;5097567;28;20208;-72
2022/11/05 12:16:31;;;;;;;8.85;2.08;;;13.60;99.90;;;;;;5097229;28;20193;-72
2022/11/05 12:19:04;;;;;;;5.60;1.70;;;13.70;99.90;;;;;;5096441;28;20218;-73
2022/11/05 12:22:01;;;;;;;5.68;1.98;;;13.70;99.90;;;;;;5094579;28;20578;-72
2022/11/05 12:24:45;;;;;;;6.03;1.95;;;13.60;99.90;;;;;;5099260;28;20212;-72
2022/11/05 12:27:13;;;;;;;6.55;1.95;;;13.60;99.90;;;;;;5100118;28;20210;-72
2022/11/05 12:30:00;;;;;;;7.43;1.98;;;13.50;99.90;;;;;;5094167;28;20214;-73
2022/11/05 12:32:48;;;;;;;6.57;1.83;;;13.40;99.90;;;;;;5100142;28;20237;-72
2022/11/05 12:35:38;;;;;;;7.82;2.58;;;13.40;99.90;;;;;;5100026;28;20359;-72
2022/11/05 12:38:25;;;;;;;5.60;1.87;;;13.50;99.90;;;;;;5089561;28;20240;-72
2022/11/05 12:41:16;;;;;;;4.25;1.90;;;13.50;99.90;;;;;;5081656;28;20202;-71
2022/11/05 12:44:13;;;;;;;7.78;2.35;;;13.60;99.90;;;;;;5098812;28;20186;-72
2022/11/05 12:47:19;;;;;;;8.05;2.47;;;13.50;99.90;;;;;;5077190;28;20181;-73
2022/11/05 12:50:03;;;;;;;8.38;1.88;;;13.50;99.90;;;;;;5078298;28;20193;-73
2022/11/05 12:52:52;;;;;;;4.82;1.77;;;13.50;99.90;;;;;;5098459;28;20362;-73
2022/11/05 12:55:22;;;;;;;8.18;2.05;;;13.50;99.90;;;;;;5094765;28;20226;-72
2022/11/05 12:57:51;;;;;;;6.25;2.08;;;13.50;99.90;;;;;;5097935;28;20660;-72
2022/11/05 13:00:25;;;;;;;5.93;2.20;;;13.40;99.90;;;;;;5098261;28;20218;-72
2022/11/05 13:02:55;;;;;;;6.53;1.90;;;13.20;99.90;;;;;;5095820;28;20208;-72
2022/11/05 13:05:35;;;;;;;6.85;2.45;;;13.10;99.90;;;;;;5093633;28;20207;-72
2022/11/05 13:08:15;;;;;;;7.33;1.87;;;13.00;99.90;;;;;;5096742;28;20232;-72
2022/11/05 13:10:57;;;;;;;7.33;2.00;;;13.10;99.90;;;;;;5086196;28;20697;-72
2022/11/05 13:13:41;;;;;;;7.78;2.10;;;13.00;99.90;;;;;;5077880;28;20183;-72
2022/11/05 13:16:23;;;;;;;6.45;3.05;;;13.00;99.90;;;;;;5094062;28;20254;-73
2022/11/05 13:18:53;;;;;;;6.35;1.73;;;13.00;99.90;;;;;;5099279;28;20213;-72
2022/11/05 13:21:22;;;;;;;5.63;2.23;;;13.00;99.90;;;;;;5072006;28;20248;-70
2022/11/05 13:23:51;;;;;;;11.27;2.47;;;13.00;99.90;;;;;;5097605;28;20221;-72
2022/11/05 13:26:23;;;;;;;3.58;1.38;;;13.00;99.90;;;;;;5098852;28;20214;-72
2022/11/05 13:28:58;;;;;;;4.90;1.83;;;13.00;99.90;;;;;;5096234;28;20177;-72
2022/11/05 13:31:40;;;;;;;5.63;2.50;;;12.90;99.90;;;;;;5094318;28;20655;-71
2022/11/05 13:34:10;;;;;;;5.23;2.10;;;13.00;99.90;;;;;;5078191;28;20210;-72
2022/11/05 13:39:48;;;;;;;7.03;1.65;;;13.20;99.90;;;;;;5096644;28;20312;-72
2022/11/05 13:42:22;;;;;;;10.88;1.73;;;13.10;99.90;;;;;;5096196;28;20210;-72
2022/11/05 13:44:47;;;;;;;5.53;2.22;;;13.10;99.90;;;;;;5081889;28;20240;-73
2022/11/05 13:47:41;;;;;;;5.93;1.45;;;13.20;99.90;;;;;;5089772;28;20305;-73
2022/11/05 13:50:22;;;;;;;4.65;2.05;;;13.10;99.90;;;;;;5061347;28;20230;-72
2022/11/05 13:52:47;;;;;;;8.05;2.35;;;13.30;99.90;;;;;;5081922;28;20644;-72
2022/11/05 13:55:46;;;;;;;5.35;1.67;;;13.30;99.90;;;;;;5075004;28;20186;-72
2022/11/05 13:58:36;;;;;;;5.40;2.13;;;13.20;99.90;;;;;;5092726;28;20228;-72